AirNav   TITAN Aviation Fuels
 
 1134 users online  

2AL7 Mount Aero Lake Farm Airport
Hanceville, Alabama, USA

GOING TO HANCEVILLE?


FAA INFORMATION EFFECTIVE 11 AUGUST 2022

Location

FAA Identifier: 2AL7
Lat/Long: 34-03-46.0000N 086-43-23.0000W
34-03.766667N 086-43.383333W
34.0627778,-86.7230556
(estimated)
Elevation: 625 ft. / 190.5 m (surveyed)
Variation: 01W (1990)
From city: 2 miles E of HANCEVILLE, AL
Time zone: UTC -5 (UTC -6 during Standard Time)
Zip code: 35077

Airport Operations

Airport use: Private use. Permission required prior to landing
Activation date: 03/1995
Control tower: no
ARTCC: ATLANTA CENTER
FSS: ANNISTON FLIGHT SERVICE STATION
Attendance: UNATNDD
Wind indicator: yes
Segmented circle: no

Airport Communications

WX AWOS-3PT at CMD (14 nm NW): 124.175 (256-775-7476)

Nearby radio navigation aids

VOR radial/distance  VOR name  Freq  Var
VUZr018/25.2VULCAN VORTAC114.4002E
GADr277/32.2GADSDEN VOR/DME112.3002E

Airport Services

Runway Information

Runway 18/36

Dimensions: 2600 x 90 ft. / 792 x 27 m
Surface: turf, in good condition
RUNWAY 18  RUNWAY 36
Traffic pattern: leftleft
Displaced threshold: no250 ft.
Obstructions: 27 ft. pline, 1071 ft. from runway29 ft. tree, 633 ft. from runway

Airport Ownership and Management from official FAA records

Ownership: Privately-owned
Owner: W.O. & ELLEN HOGELAND
377 COUNTY ROAD 543
BREMEN, AL 35033
Phone (256) 709-5901
Manager: W.O. HOGELAND
377 COUNTY ROAD 543
BREMEN, AL 35033
Phone (256) 709-5901

Airport Operational Statistics

Aircraft based on the field: 2
Single engine airplanes: 2
    

Additional Remarks

PRIOR PERMISSION REQUIRED
FOR CD CTC ATLANTA ARTCC AT 770-210-7692.

Instrument Procedures

There are no published instrument procedures at 2AL7.

Some nearby airports with instrument procedures:

KCMD - Cullman Regional Airport/Folsom Field (14 nm NW)
20A - Robbins Field Airport (18 nm E)
5M0 - Hartselle/Morgan County Regional Airport (23 nm NW)
8A0 - Albertville Regional Airport-Thomas J Brumlik Field (25 nm NE)
KBHM - Birmingham-Shuttlesworth International Airport (30 nm S)
 
Loc | Ops | Rwys | IFR | FBO | Links
Com | Nav | Svcs | Stats | Notes
Area around 2AL7 (Mount Aero Lake Farm Airport)
 
Road maps at: MapQuest Bing Google
 
Aerial photo
No photo
 
Sectional chart

 
Airport distance calculator
Flying to Mount Aero Lake Farm Airport? Find the distance to fly.

From to 2AL7

Sunrise and sunset
Times for 13-Aug-2022
 Local
(UTC-5)
 Zulu
(UTC)
Morning civil twilight05:4110:41
Sunrise06:0811:08
Sunset19:3600:36
Evening civil twilight20:0201:02

Current date and time
Zulu (UTC)  13-Aug-2022 19:20:05
Local (UTC-5)  13-Aug-2022 14:20:05
 
METAR
KCMD 
14nm NW 
131855Z AUTO 05007KT 10SM FEW050 30/19 A3008 RMK AO2
K8A0 
25nm NE 
131855Z AUTO 10005KT 10SM SCT034 SCT041 SCT055 27/19 A3008 RMK AO2
TAF
KBHM 
30nm S 
131720Z 1318/1418 VRB03KT P6SM FEW060 FEW250 FM140100 VRB03KT P6SM FEW250
KHSV 
35nm N 
131808Z 1318/1418 10005KT P6SM SCT040 SCT250 FM140000 VRB03KT P6SM SCT250
KHUA 
37nm N 
122000Z 1220/1402 01012KT 9999 FEW050 QNH3002INS BECMG 1323/1324 VRB06KT 9999 FEW050 QNH3001INS TX30/1221Z TN18/1311Z LAST NO AMDS AFT 1300 NEXT 1512
NOTAMs
Click for the latest NOTAMs
NOTAMs are issued by the DoD/FAA and will open in a separate window not controlled by AirNav.

 

 
 

Would you like to see your business listed on this page?

 If your business provides an interesting product or service to pilots, flight crews, aircraft, or users of the Mount Aero Lake Farm Airport, you should consider listing it here.  To start the listing process, click on the button below
 
Add a business
 

Other Pages about Mount Aero Lake Farm Airport

Update a link
 
Copyright © AirNav, LLC. All rights reserved. Privacy Policy  Contact